Time;durP1;ratioP1;P1;durP2;ratioP2;P2;SDS_P1;SDS_P2;PMS_P1;PMS_P2;Temp;Humidity;BMP_temperature;BMP_pressure;BME280_temperature;BME280_humidity;BME280_pressure;Samples;Min_cycle;Max_cycle;Signal;HPM_P1;HPM_P2
2021/01/11 00:01:08;;;;;;;19.50;9.50;;;-3.00;91.70;;;;;;5009849;28;20956;-65
2021/01/11 00:03:34;;;;;;;19.87;9.37;;;-3.00;91.80;;;;;;5013707;28;20470;-65
2021/01/11 00:05:59;;;;;;;20.57;10.30;;;-3.00;91.90;;;;;;5010547;28;20190;-65
2021/01/11 00:08:25;;;;;;;20.80;10.10;;;-3.00;92.00;;;;;;5005476;28;20180;-65
2021/01/11 00:10:51;;;;;;;26.37;12.00;;;-3.00;92.00;;;;;;5031197;28;20290;-66
2021/01/11 00:13:17;;;;;;;26.27;11.23;;;-3.00;92.00;;;;;;5030111;28;20165;-65
2021/01/11 00:15:42;;;;;;;25.10;11.70;;;-3.00;91.90;;;;;;5027499;28;20189;-66
2021/01/11 00:18:08;;;;;;;23.57;11.23;;;-3.10;91.80;;;;;;5014385;28;20178;-65
2021/01/11 00:20:34;;;;;;;28.37;10.90;;;-3.10;91.60;;;;;;5010405;28;20207;-65
2021/01/11 00:23:00;;;;;;;22.87;10.97;;;-3.20;91.70;;;;;;5007969;28;20498;-65
2021/01/11 00:25:25;;;;;;;19.87;10.03;;;-3.20;91.90;;;;;;5008667;28;20193;-65
2021/01/11 00:27:51;;;;;;;27.93;12.13;;;-3.30;91.80;;;;;;5008497;28;20184;-65
2021/01/11 00:30:17;;;;;;;21.00;11.20;;;-3.30;92.10;;;;;;4994425;28;20195;-65
2021/01/11 00:32:43;;;;;;;25.30;11.33;;;-3.30;92.10;;;;;;5013031;28;20185;-65
2021/01/11 00:35:09;;;;;;;23.13;11.80;;;-3.30;91.70;;;;;;5008942;28;20483;-65
2021/01/11 00:37:35;;;;;;;20.67;11.00;;;-3.40;91.80;;;;;;5008933;28;20221;-64
2021/01/11 00:40:02;;;;;;;23.37;11.60;;;-3.40;91.90;;;;;;4997684;28;20472;-65
2021/01/11 00:42:33;;;;;;;23.97;12.17;;;-3.40;91.70;;;;;;4994784;28;20414;-65
2021/01/11 00:44:59;;;;;;;24.60;11.60;;;-3.50;91.60;;;;;;4997540;28;20615;-65
2021/01/11 00:47:24;;;;;;;24.40;10.07;;;-3.60;91.70;;;;;;5001574;28;20515;-65
2021/01/11 00:49:50;;;;;;;20.10;9.90;;;-3.60;91.90;;;;;;5002365;28;20205;-65
2021/01/11 00:52:16;;;;;;;20.87;9.20;;;-3.60;92.00;;;;;;5013464;28;20173;-65
2021/01/11 00:54:42;;;;;;;26.70;12.40;;;-3.60;92.10;;;;;;5001075;28;20564;-66
2021/01/11 00:57:08;;;;;;;21.40;10.40;;;-3.70;92.10;;;;;;5009114;28;20968;-66
2021/01/11 00:59:33;;;;;;;25.67;10.53;;;-3.70;92.10;;;;;;5012938;28;20213;-65
2021/01/11 01:02:01;;;;;;;20.63;10.50;;;-3.70;92.30;;;;;;5013176;28;20844;-65
2021/01/11 01:04:26;;;;;;;23.53;10.67;;;-3.70;92.60;;;;;;5008036;28;20201;-65
2021/01/11 01:06:52;;;;;;;23.30;10.50;;;-3.70;92.60;;;;;;4993198;28;20795;-65
2021/01/11 01:09:18;;;;;;;21.50;9.90;;;-3.70;92.80;;;;;;5010404;28;20404;-64
2021/01/11 01:11:44;;;;;;;23.63;9.53;;;-3.70;93.20;;;;;;5010530;28;20182;-65
2021/01/11 01:14:10;;;;;;;18.50;9.80;;;-3.60;93.00;;;;;;5009869;28;20194;-65
2021/01/11 01:16:36;;;;;;;19.97;9.60;;;-3.60;93.00;;;;;;5013585;28;20169;-65
2021/01/11 01:19:02;;;;;;;25.83;11.70;;;-3.60;93.20;;;;;;5012990;28;20420;-66
2021/01/11 01:21:28;;;;;;;21.80;10.97;;;-3.60;93.40;;;;;;4994118;28;20452;-65
2021/01/11 01:23:54;;;;;;;27.30;12.13;;;-3.60;93.40;;;;;;5009181;28;20517;-65
2021/01/11 01:26:19;;;;;;;27.00;11.17;;;-3.60;93.30;;;;;;5008342;28;20185;-64
2021/01/11 01:28:45;;;;;;;18.43;9.97;;;-3.60;93.30;;;;;;5009482;28;20412;-65
2021/01/11 01:31:11;;;;;;;17.27;9.77;;;-3.60;93.20;;;;;;5006822;28;20292;-65
2021/01/11 01:33:37;;;;;;;24.50;10.43;;;-3.60;93.10;;;;;;4993320;28;20200;-65
2021/01/11 01:36:03;;;;;;;20.77;9.83;;;-3.70;93.00;;;;;;4994391;28;20744;-65
2021/01/11 01:38:28;;;;;;;23.07;11.20;;;-3.70;93.10;;;;;;5006678;28;20198;-64
2021/01/11 01:40:55;;;;;;;24.77;10.43;;;-3.70;93.30;;;;;;4995267;28;20462;-65
2021/01/11 01:43:20;;;;;;;20.83;10.87;;;-3.70;93.40;;;;;;5011760;28;20281;-65
2021/01/11 01:45:46;;;;;;;21.20;10.37;;;-3.70;93.50;;;;;;5011072;28;20492;-65
2021/01/11 01:48:12;;;;;;;24.30;11.43;;;-3.70;93.60;;;;;;4996660;28;20182;-65
2021/01/11 01:50:40;;;;;;;28.17;12.40;;;-3.60;93.80;;;;;;4992797;28;20453;-65
2021/01/11 01:53:05;;;;;;;25.33;12.00;;;-3.60;93.90;;;;;;5005213;28;20409;-65
2021/01/11 01:55:31;;;;;;;24.37;11.27;;;-3.60;93.80;;;;;;5012398;28;20499;-63
2021/01/11 01:58:03;;;;;;;25.23;12.00;;;-3.60;93.80;;;;;;5001760;28;20253;-65
2021/01/11 02:00:29;;;;;;;28.37;12.60;;;-3.60;93.90;;;;;;4995320;28;20460;-65
2021/01/11 02:02:55;;;;;;;27.20;12.60;;;-3.50;93.90;;;;;;4993055;28;20449;-66
2021/01/11 02:05:21;;;;;;;27.03;11.83;;;-3.50;94.00;;;;;;4990404;28;20489;-65
2021/01/11 02:08:21;;;;;;;22.20;11.00;;;-3.50;94.00;;;;;;5001345;28;20190;-65
2021/01/11 02:10:50;;;;;;;24.97;10.40;;;-3.50;93.90;;;;;;4993632;28;20208;-64
2021/01/11 02:13:37;;;;;;;26.97;12.40;;;-3.50;93.80;;;;;;5007855;28;20821;-65
2021/01/11 02:16:12;;;;;;;28.30;11.63;;;-3.50;93.80;;;;;;4999544;28;21032;-65
2021/01/11 02:18:54;;;;;;;21.90;10.87;;;-3.50;93.70;;;;;;4990569;28;20439;-66
2021/01/11 02:21:38;;;;;;;32.10;12.53;;;-3.50;93.70;;;;;;4992485;28;20784;-66
2021/01/11 02:24:23;;;;;;;23.60;11.47;;;-3.50;93.90;;;;;;4996863;28;20539;-66
2021/01/11 02:26:56;;;;;;;23.70;11.90;;;-3.50;94.00;;;;;;5003076;28;20490;-66
2021/01/11 02:29:55;;;;;;;25.50;11.43;;;-3.50;94.00;;;;;;5011901;28;20993;-65
2021/01/11 02:32:23;;;;;;;28.13;12.00;;;-3.50;93.90;;;;;;5012548;28;20447;-66
2021/01/11 02:34:52;;;;;;;24.05;10.75;;;-3.60;93.80;;;;;;5005554;28;20433;-66
2021/01/11 02:37:18;;;;;;;27.40;10.83;;;-3.60;93.90;;;;;;5007412;28;20279;-65
2021/01/11 02:39:44;;;;;;;26.03;12.53;;;-3.60;93.90;;;;;;5002594;28;20483;-66
2021/01/11 02:42:10;;;;;;;25.07;11.43;;;-3.60;93.90;;;;;;4993093;28;20476;-66
2021/01/11 02:44:36;;;;;;;25.43;11.70;;;-3.60;94.00;;;;;;4993224;28;20454;-64
2021/01/11 02:47:02;;;;;;;25.47;12.70;;;-3.60;93.90;;;;;;5005913;28;20419;-64
2021/01/11 02:49:36;;;;;;;29.03;11.70;;;-3.50;94.00;;;;;;4999956;28;21040;-64
2021/01/11 02:52:21;;;;;;;22.67;11.07;;;-3.50;93.90;;;;;;5010945;28;20390;-64
2021/01/11 02:55:18;;;;;;;27.10;11.97;;;-3.60;93.90;;;;;;5009702;28;20456;-64
2021/01/11 02:57:54;;;;;;;26.73;12.57;;;-3.50;94.00;;;;;;5005873;28;20511;-64
2021/01/11 03:00:21;;;;;;;27.60;11.47;;;-3.50;93.90;;;;;;5001085;28;20460;-63
2021/01/11 03:02:48;;;;;;;25.60;12.03;;;-3.50;94.00;;;;;;5005625;28;20809;-64
2021/01/11 03:05:16;;;;;;;25.93;12.93;;;-3.60;93.90;;;;;;4990146;28;20453;-64
2021/01/11 03:08:03;;;;;;;28.63;12.40;;;-3.60;94.00;;;;;;5008224;28;20789;-64
2021/01/11 03:10:29;;;;;;;28.53;11.30;;;-3.60;94.00;;;;;;5001959;28;20464;-64
2021/01/11 03:12:55;;;;;;;24.53;11.33;;;-3.60;93.90;;;;;;4992172;28;20824;-64
2021/01/11 03:15:21;;;;;;;27.07;12.50;;;-3.60;93.90;;;;;;4992090;28;20416;-64
2021/01/11 03:17:47;;;;;;;21.70;11.27;;;-3.60;94.30;;;;;;4991910;28;20416;-64
2021/01/11 03:20:14;;;;;;;31.73;11.90;;;-3.60;94.10;;;;;;5006341;28;20743;-63
2021/01/11 03:22:40;;;;;;;23.10;10.70;;;-3.60;94.10;;;;;;4996628;28;20173;-63
2021/01/11 03:25:07;;;;;;;32.90;12.60;;;-3.60;94.10;;;;;;5014962;28;20549;-64
2021/01/11 03:27:32;;;;;;;28.90;12.60;;;-3.60;94.00;;;;;;5008643;28;20863;-64
2021/01/11 03:29:58;;;;;;;23.53;11.30;;;-3.70;93.90;;;;;;4995455;28;20462;-64
2021/01/11 03:32:24;;;;;;;19.80;11.50;;;-3.70;93.80;;;;;;4996473;28;20258;-64
2021/01/11 03:34:50;;;;;;;28.10;12.37;;;-3.70;93.90;;;;;;4995800;28;20509;-64
2021/01/11 03:37:16;;;;;;;24.80;11.60;;;-3.70;93.90;;;;;;4996163;28;20670;-64
2021/01/11 03:39:42;;;;;;;27.65;11.13;;;-3.70;94.00;;;;;;4995178;28;20233;-64
2021/01/11 03:42:08;;;;;;;22.33;11.20;;;-3.70;94.00;;;;;;5011358;28;20680;-64
2021/01/11 03:44:34;;;;;;;29.47;11.43;;;-3.70;93.90;;;;;;5000866;28;20228;-64
2021/01/11 03:47:00;;;;;;;25.93;11.80;;;-3.70;94.00;;;;;;4995397;28;20858;-64
2021/01/11 03:49:25;;;;;;;28.73;12.20;;;-3.70;94.10;;;;;;4995079;28;20184;-64
2021/01/11 03:51:51;;;;;;;27.73;12.00;;;-3.70;94.20;;;;;;5008134;28;20179;-64
2021/01/11 03:54:17;;;;;;;26.10;12.80;;;-3.70;94.10;;;;;;4998913;28;20190;-64
2021/01/11 03:56:45;;;;;;;28.70;12.77;;;-3.70;94.00;;;;;;4998750;28;20440;-64
2021/01/11 03:59:11;;;;;;;27.17;12.33;;;-3.70;94.20;;;;;;5015107;28;20174;-64
2021/01/11 04:01:37;;;;;;;24.10;11.97;;;-3.70;94.20;;;;;;5013663;28;20451;-63
2021/01/11 04:04:03;;;;;;;27.30;11.70;;;-3.70;94.30;;;;;;5014838;28;20193;-64
2021/01/11 04:06:29;;;;;;;30.80;13.17;;;-3.70;94.30;;;;;;5007329;28;20923;-64
2021/01/11 04:08:54;;;;;;;28.27;11.90;;;-3.70;94.40;;;;;;5007587;28;20427;-64
2021/01/11 04:11:21;;;;;;;25.47;12.20;;;-3.70;94.20;;;;;;4991705;28;20298;-64
2021/01/11 04:13:48;;;;;;;30.90;12.53;;;-3.70;94.30;;;;;;4996892;28;20755;-64
2021/01/11 04:16:15;;;;;;;30.37;13.10;;;-3.80;94.20;;;;;;5002037;28;20429;-64
2021/01/11 04:18:40;;;;;;;21.70;11.35;;;-3.80;94.20;;;;;;5007231;28;20424;-64
2021/01/11 04:21:10;;;;;;;26.63;12.60;;;-3.90;94.10;;;;;;4994594;28;20268;-64
2021/01/11 04:23:35;;;;;;;32.03;12.50;;;-3.90;94.20;;;;;;4998662;28;20289;-64
2021/01/11 04:26:01;;;;;;;33.43;12.33;;;-4.00;94.20;;;;;;4994461;28;20521;-64
2021/01/11 04:28:27;;;;;;;32.40;13.30;;;-4.10;94.30;;;;;;5008552;28;20710;-64
2021/01/11 04:30:52;;;;;;;27.07;11.93;;;-4.10;94.50;;;;;;5014282;28;20200;-64
2021/01/11 04:33:18;;;;;;;28.17;11.90;;;-4.10;94.60;;;;;;5008138;28;20186;-64
2021/01/11 04:35:43;;;;;;;27.77;13.33;;;-4.10;94.50;;;;;;4994872;28;20189;-64
2021/01/11 04:38:10;;;;;;;30.95;11.98;;;-4.00;94.50;;;;;;5014910;28;20272;-64
2021/01/11 04:40:36;;;;;;;27.45;12.40;;;-4.00;94.40;;;;;;4995214;28;20301;-64
2021/01/11 04:43:17;;;;;;;33.03;13.20;;;-4.00;94.60;;;;;;4995050;28;20202;-64
2021/01/11 04:45:43;;;;;;;27.07;11.10;;;-4.00;94.60;;;;;;5009645;28;20180;-64
2021/01/11 04:48:11;;;;;;;34.07;13.47;;;-3.90;94.50;;;;;;5003771;28;20442;-64
2021/01/11 04:50:38;;;;;;;27.97;13.17;;;-4.00;94.40;;;;;;4996387;28;20449;-64
2021/01/11 04:53:08;;;;;;;30.23;12.80;;;-3.90;94.50;;;;;;4994317;28;20405;-64
2021/01/11 04:55:37;;;;;;;26.60;12.83;;;-3.90;94.60;;;;;;5000528;28;20468;-65
2021/01/11 04:58:09;;;;;;;26.52;11.73;;;-3.90;94.70;;;;;;5016374;28;20441;-64
2021/01/11 05:00:37;;;;;;;32.42;12.20;;;-3.90;94.50;;;;;;5010351;28;20205;-64
2021/01/11 05:03:03;;;;;;;30.53;11.87;;;-4.00;94.50;;;;;;5009201;28;20569;-65
2021/01/11 05:05:31;;;;;;;24.50;12.13;;;-4.00;94.50;;;;;;5011782;28;20455;-65
2021/01/11 05:07:57;;;;;;;24.30;10.93;;;-4.00;94.50;;;;;;4996746;28;20177;-64
2021/01/11 05:10:30;;;;;;;25.55;10.95;;;-4.00;94.60;;;;;;5002597;28;20204;-65
2021/01/11 05:13:04;;;;;;;23.73;11.27;;;-4.10;94.60;;;;;;5011370;28;20276;-65
2021/01/11 05:15:32;;;;;;;24.58;11.15;;;-4.10;94.60;;;;;;4998474;28;20970;-65
2021/01/11 05:17:59;;;;;;;25.20;10.55;;;-4.10;94.60;;;;;;4998354;28;20171;-65
2021/01/11 05:20:29;;;;;;;26.05;10.63;;;-4.10;94.70;;;;;;5007076;28;20255;-65
2021/01/11 05:22:57;;;;;;;20.77;9.30;;;-4.10;94.60;;;;;;5005509;28;20186;-66
2021/01/11 05:25:25;;;;;;;22.27;10.68;;;-4.10;94.70;;;;;;5018933;28;20468;-66
2021/01/11 05:28:07;;;;;;;20.83;10.47;;;-4.10;94.70;;;;;;5011717;28;20189;-66
2021/01/11 05:30:40;;;;;;;22.08;10.60;;;-4.10;94.70;;;;;;5010918;28;20448;-65
2021/01/11 05:33:08;;;;;;;18.60;8.85;;;-4.20;94.60;;;;;;5014460;28;20185;-67
2021/01/11 05:35:34;;;;;;;20.15;10.68;;;-4.20;94.70;;;;;;5020752;28;20182;-66
2021/01/11 05:38:01;;;;;;;19.30;9.35;;;-4.20;94.80;;;;;;5014869;28;20184;-67
2021/01/11 05:40:28;;;;;;;25.63;11.37;;;-4.30;94.70;;;;;;5018879;28;20231;-65
2021/01/11 05:42:56;;;;;;;26.77;11.55;;;-4.30;94.60;;;;;;5002022;28;20431;-65
2021/01/11 05:45:25;;;;;;;22.85;10.80;;;-4.30;94.50;;;;;;5002956;28;20620;-65
2021/01/11 05:48:00;;;;;;;22.23;10.98;;;-4.30;94.60;;;;;;5009410;28;20181;-66
2021/01/11 05:50:31;;;;;;;22.50;11.18;;;-4.30;94.70;;;;;;4993936;28;20200;-65
2021/01/11 05:52:57;;;;;;;21.10;10.18;;;-4.30;94.60;;;;;;5023144;28;20179;-62
2021/01/11 05:55:28;;;;;;;31.27;12.10;;;-4.20;94.50;;;;;;5010414;28;20559;-63
2021/01/11 05:57:55;;;;;;;29.38;11.65;;;-4.20;94.50;;;;;;5010399;28;20691;-64
2021/01/11 06:00:23;;;;;;;23.40;10.48;;;-4.10;94.30;;;;;;5008608;28;20209;-67
2021/01/11 06:02:49;;;;;;;28.23;12.00;;;-4.10;94.10;;;;;;5004766;28;20242;-67
2021/01/11 06:05:18;;;;;;;28.88;10.63;;;-4.10;94.00;;;;;;5010302;28;20200;-66
2021/01/11 06:07:45;;;;;;;26.92;11.63;;;-4.00;94.00;;;;;;5007173;28;20208;-65
2021/01/11 06:10:13;;;;;;;20.48;10.10;;;-4.00;94.00;;;;;;5011660;28;20194;-66
2021/01/11 06:12:40;;;;;;;25.17;11.10;;;-4.00;94.00;;;;;;5025027;28;20335;-66
2021/01/11 06:15:12;;;;;;;25.40;12.25;;;-4.00;93.90;;;;;;5011934;28;20424;-65
2021/01/11 06:17:46;;;;;;;27.52;11.35;;;-4.00;94.00;;;;;;5008516;28;20192;-65
2021/01/11 06:20:29;;;;;;;28.00;12.63;;;-4.00;94.10;;;;;;5003021;28;20214;-66
2021/01/11 06:22:58;;;;;;;23.00;10.40;;;-4.00;94.20;;;;;;5007688;28;20193;-65
2021/01/11 06:25:24;;;;;;;22.83;9.82;;;-4.00;93.90;;;;;;4988355;28;20668;-66
2021/01/11 06:28:03;;;;;;;24.17;11.20;;;-4.00;93.90;;;;;;4995029;28;20711;-65
2021/01/11 06:30:37;;;;;;;25.50;11.48;;;-4.00;94.00;;;;;;5002754;28;21013;-66
2021/01/11 06:33:08;;;;;;;19.60;9.30;;;-4.00;93.70;;;;;;5006432;28;20261;-58
2021/01/11 06:35:36;;;;;;;25.77;10.90;;;-4.00;93.80;;;;;;5002006;28;20460;-66
2021/01/11 06:38:17;;;;;;;22.52;10.70;;;-4.00;93.40;;;;;;4997979;28;20240;-66
2021/01/11 06:40:43;;;;;;;22.95;10.98;;;-4.10;93.40;;;;;;5002992;28;20216;-66
2021/01/11 06:43:09;;;;;;;21.77;11.07;;;-4.10;93.60;;;;;;5001448;28;20206;-65
2021/01/11 06:45:39;;;;;;;24.53;9.97;;;-4.10;93.70;;;;;;5000170;28;20479;-66
2021/01/11 06:48:07;;;;;;;26.25;11.40;;;-4.10;93.40;;;;;;5001836;28;20420;-66
2021/01/11 06:50:34;;;;;;;25.57;11.40;;;-4.10;93.50;;;;;;5001877;28;20217;-65
2021/01/11 06:53:03;;;;;;;24.20;11.63;;;-4.10;93.70;;;;;;4997031;28;20462;-65
2021/01/11 06:55:33;;;;;;;26.42;10.38;;;-4.10;93.60;;;;;;5005471;28;20185;-66
2021/01/11 06:58:00;;;;;;;23.00;10.15;;;-4.10;93.50;;;;;;5008595;28;20187;-67
2021/01/11 07:00:38;;;;;;;22.25;11.23;;;-4.10;93.50;;;;;;5004472;28;20233;-67
2021/01/11 07:03:07;;;;;;;30.08;12.60;;;-4.10;93.90;;;;;;5008186;28;20180;-67
2021/01/11 07:05:33;;;;;;;26.73;11.37;;;-4.10;94.20;;;;;;5009210;28;20310;-67
2021/01/11 07:08:12;;;;;;;25.17;10.40;;;-4.00;94.00;;;;;;5005799;28;20472;-64
2021/01/11 07:10:42;;;;;;;22.80;10.70;;;-4.10;94.00;;;;;;5006701;28;20843;-66
2021/01/11 07:13:20;;;;;;;24.33;12.20;;;-4.10;94.00;;;;;;5009597;28;20436;-65
2021/01/11 07:15:51;;;;;;;25.92;10.98;;;-4.00;94.10;;;;;;5003759;28;20901;-66
2021/01/11 07:18:36;;;;;;;22.80;10.43;;;-4.00;94.00;;;;;;4994576;28;20224;-66
2021/01/11 07:21:13;;;;;;;23.20;10.20;;;-4.00;93.90;;;;;;5003841;28;20233;-67
2021/01/11 07:23:39;;;;;;;20.27;9.53;;;-4.00;93.90;;;;;;5007102;28;20463;-66
2021/01/11 07:26:19;;;;;;;26.07;12.53;;;-4.00;93.90;;;;;;5010164;28;20431;-66
2021/01/11 07:28:55;;;;;;;24.98;11.45;;;-4.00;93.90;;;;;;5004090;28;20439;-64
2021/01/11 07:31:28;;;;;;;23.92;11.60;;;-4.00;93.90;;;;;;5009075;28;20192;-67
2021/01/11 07:33:58;;;;;;;26.07;12.80;;;-4.00;93.80;;;;;;5009168;28;20208;-66
2021/01/11 07:36:24;;;;;;;30.30;11.88;;;-4.10;93.90;;;;;;5006771;28;20445;-66
2021/01/11 07:39:09;;;;;;;31.60;12.33;;;-4.10;93.90;;;;;;5005811;28;20571;-66
2021/01/11 07:41:39;;;;;;;25.98;11.70;;;-4.10;94.10;;;;;;5008750;28;20213;-53
2021/01/11 07:44:13;;;;;;;30.83;12.90;;;-4.10;94.10;;;;;;5005598;28;20715;-65
2021/01/11 07:46:39;;;;;;;23.77;11.02;;;-4.10;94.10;;;;;;5001811;28;21013;-66
2021/01/11 07:49:16;;;;;;;20.30;10.23;;;-4.00;94.00;;;;;;4991805;28;20209;-66
2021/01/11 07:51:44;;;;;;;24.17;11.43;;;-4.00;94.00;;;;;;5003475;28;21336;-68
2021/01/11 07:54:12;;;;;;;30.15;12.77;;;-4.00;94.00;;;;;;5005258;28;20826;-67
2021/01/11 07:56:39;;;;;;;28.90;12.50;;;-4.00;94.00;;;;;;5018469;28;20688;-64
2021/01/11 07:59:06;;;;;;;25.85;11.40;;;-4.00;94.00;;;;;;5001637;28;21016;-57
2021/01/11 08:01:40;;;;;;;27.47;12.03;;;-3.90;94.00;;;;;;5002341;28;20225;-66
2021/01/11 08:04:06;;;;;;;34.83;13.17;;;-3.90;93.90;;;;;;5000105;28;20976;-65
2021/01/11 08:06:44;;;;;;;29.73;13.90;;;-3.90;93.70;;;;;;5006147;28;20439;-65
2021/01/11 08:09:12;;;;;;;23.80;11.63;;;-3.80;93.60;;;;;;5005914;28;20498;-65
2021/01/11 08:11:41;;;;;;;31.70;13.10;;;-3.80;93.30;;;;;;5003353;28;20928;-65
2021/01/11 08:14:07;;;;;;;30.58;12.23;;;-3.80;93.40;;;;;;5006593;28;20441;-65
2021/01/11 08:16:34;;;;;;;26.63;13.20;;;-3.80;93.30;;;;;;5021269;28;20190;-65
2021/01/11 08:19:10;;;;;;;29.43;12.23;;;-3.80;93.40;;;;;;5026062;28;20463;-64
2021/01/11 08:21:38;;;;;;;29.40;11.07;;;-3.70;93.50;;;;;;5025286;28;21028;-65
2021/01/11 08:24:07;;;;;;;31.57;13.03;;;-3.70;93.20;;;;;;5026053;28;21317;-65
2021/01/11 08:27:02;;;;;;;32.37;12.97;;;-3.70;93.10;;;;;;5023403;28;20467;-65
2021/01/11 08:29:32;;;;;;;27.53;12.40;;;-3.70;93.20;;;;;;5040055;28;20417;-65
2021/01/11 08:31:59;;;;;;;27.33;11.60;;;-3.70;93.30;;;;;;5022921;28;20425;-65
2021/01/11 08:34:26;;;;;;;32.23;13.77;;;-3.70;93.40;;;;;;5019949;28;20455;-65
2021/01/11 08:36:51;;;;;;;28.23;11.90;;;-3.70;93.40;;;;;;5026607;28;20435;-65
2021/01/11 08:39:17;;;;;;;25.30;10.80;;;-3.70;93.30;;;;;;5025947;28;20453;-65
2021/01/11 08:41:50;;;;;;;27.60;12.53;;;-3.60;93.10;;;;;;5024273;28;20210;-65
2021/01/11 08:44:35;;;;;;;27.93;11.70;;;-3.60;92.90;;;;;;5023688;28;20482;-65
2021/01/11 08:47:02;;;;;;;28.13;10.68;;;-3.60;93.00;;;;;;5026607;28;20440;-65
2021/01/11 08:49:30;;;;;;;24.53;11.50;;;-3.60;92.90;;;;;;5022121;28;20209;-65
2021/01/11 08:52:07;;;;;;;23.90;10.70;;;-3.60;92.80;;;;;;5028506;28;20738;-66
2021/01/11 08:54:35;;;;;;;30.63;12.07;;;-3.60;92.60;;;;;;5028426;28;20432;-66
2021/01/11 08:57:10;;;;;;;31.07;13.80;;;-3.60;92.50;;;;;;5028115;28;20456;-64
2021/01/11 08:59:36;;;;;;;24.70;12.50;;;-3.50;92.60;;;;;;5023330;28;20434;-66
2021/01/11 09:02:02;;;;;;;26.60;12.03;;;-3.50;92.60;;;;;;5026703;28;20455;-67
2021/01/11 09:04:33;;;;;;;26.47;13.37;;;-3.50;92.50;;;;;;5024813;28;20464;-66
2021/01/11 09:06:59;;;;;;;28.50;12.77;;;-3.50;92.60;;;;;;5024661;28;20186;-66
2021/01/11 09:09:28;;;;;;;33.60;13.00;;;-3.40;92.50;;;;;;5028026;28;20425;-67
2021/01/11 09:12:06;;;;;;;26.67;12.20;;;-3.40;91.50;;;;;;5023258;28;20496;-67
2021/01/11 09:14:33;;;;;;;34.33;13.60;;;-3.40;91.80;;;;;;5024100;28;20708;-67
2021/01/11 09:17:04;;;;;;;28.30;11.80;;;-3.40;92.10;;;;;;5027349;28;20417;-65
2021/01/11 09:19:32;;;;;;;27.43;12.33;;;-3.40;92.20;;;;;;5023751;28;20456;-66
2021/01/11 09:22:14;;;;;;;29.93;13.23;;;-3.40;92.00;;;;;;5024245;28;20428;-66
2021/01/11 09:24:41;;;;;;;28.53;13.23;;;-3.30;92.00;;;;;;5034032;28;20551;-65
2021/01/11 09:27:10;;;;;;;33.47;13.43;;;-3.30;92.10;;;;;;5008887;28;20433;-66
2021/01/11 09:29:39;;;;;;;31.50;12.63;;;-3.20;91.70;;;;;;5007725;28;20232;-66
2021/01/11 09:32:05;;;;;;;29.83;12.50;;;-3.20;91.50;;;;;;5000503;28;21079;-65
2021/01/11 09:34:31;;;;;;;26.00;12.50;;;-3.20;91.80;;;;;;5001701;28;20477;-66
2021/01/11 09:36:57;;;;;;;27.27;11.67;;;-3.10;90.70;;;;;;4998568;28;20507;-65
2021/01/11 09:39:22;;;;;;;27.77;12.90;;;-3.20;90.20;;;;;;5004146;28;20623;-65
2021/01/11 09:41:51;;;;;;;30.40;13.67;;;-3.20;90.30;;;;;;5002701;28;20224;-65
2021/01/11 09:44:20;;;;;;;26.40;12.80;;;-3.30;90.70;;;;;;5005558;28;20243;-63
2021/01/11 09:46:47;;;;;;;27.00;11.57;;;-3.30;91.40;;;;;;5005464;28;20440;-64
2021/01/11 09:49:13;;;;;;;33.70;13.70;;;-3.20;91.60;;;;;;5003531;28;20411;-65
2021/01/11 09:51:39;;;;;;;30.40;14.10;;;-3.20;91.30;;;;;;5004372;28;20440;-65
2021/01/11 09:54:06;;;;;;;34.73;14.03;;;-3.20;90.60;;;;;;5001437;28;20534;-65
2021/01/11 09:56:33;;;;;;;32.80;13.93;;;-3.20;90.90;;;;;;5005345;28;20509;-65
2021/01/11 09:59:00;;;;;;;33.67;14.40;;;-3.20;91.20;;;;;;4999831;28;20193;-65
2021/01/11 10:01:44;;;;;;;26.87;12.40;;;-3.20;91.10;;;;;;5006006;28;20452;-63
2021/01/11 10:04:12;;;;;;;28.73;13.43;;;-3.10;91.10;;;;;;5003757;28;20520;-65
2021/01/11 10:06:41;;;;;;;23.57;11.80;;;-3.10;90.70;;;;;;5003208;28;20436;-65
2021/01/11 10:09:08;;;;;;;29.50;12.50;;;-3.00;90.50;;;;;;5001484;28;20429;-64
2021/01/11 10:11:34;;;;;;;31.33;13.80;;;-3.00;90.60;;;;;;5004500;28;20444;-64
2021/01/11 10:13:59;;;;;;;34.10;15.20;;;-3.00;90.70;;;;;;4993296;28;20440;-63
2021/01/11 10:16:25;;;;;;;21.87;11.73;;;-2.90;90.60;;;;;;4990687;28;20766;-66
2021/01/11 10:18:51;;;;;;;32.77;13.97;;;-2.90;90.60;;;;;;5002136;28;20445;-64
2021/01/11 10:21:17;;;;;;;29.00;14.97;;;-2.90;90.50;;;;;;5000721;28;20703;-64
2021/01/11 10:23:43;;;;;;;33.33;14.10;;;-2.80;90.50;;;;;;4997693;28;20460;-65
2021/01/11 10:26:17;;;;;;;33.37;13.90;;;-2.80;90.40;;;;;;5003712;28;21034;-66
2021/01/11 10:28:43;;;;;;;33.67;14.10;;;-2.70;90.20;;;;;;5000799;28;20181;-65
2021/01/11 10:31:09;;;;;;;33.07;13.60;;;-2.70;90.50;;;;;;5019047;28;20599;-67
2021/01/11 10:33:35;;;;;;;31.53;14.20;;;-2.60;90.30;;;;;;5006805;28;20195;-64
2021/01/11 10:36:03;;;;;;;27.93;13.43;;;-2.50;90.20;;;;;;5007780;28;20447;-64
2021/01/11 10:38:31;;;;;;;35.40;14.70;;;-2.60;89.10;;;;;;5003369;28;21155;-65
2021/01/11 10:40:57;;;;;;;36.50;15.40;;;-2.60;89.70;;;;;;5009724;28;20465;-64
2021/01/11 10:43:23;;;;;;;38.97;15.37;;;-2.60;89.90;;;;;;5017857;28;20459;-64
2021/01/11 10:45:48;;;;;;;33.77;14.30;;;-2.50;90.00;;;;;;5021327;28;20431;-66
2021/01/11 10:48:14;;;;;;;31.10;13.90;;;-2.50;90.00;;;;;;4992083;28;20209;-66
2021/01/11 10:50:40;;;;;;;35.70;14.40;;;-2.40;90.10;;;;;;4997997;28;20856;-65
2021/01/11 10:53:05;;;;;;;32.57;14.83;;;-2.40;88.70;;;;;;5006815;28;20190;-65
2021/01/11 10:55:31;;;;;;;34.47;13.80;;;-2.30;88.20;;;;;;5003533;28;20620;-65
2021/01/11 10:57:57;;;;;;;27.47;13.83;;;-2.30;88.20;;;;;;5008895;28;20198;-65
2021/01/11 11:00:23;;;;;;;28.33;13.93;;;-2.20;87.10;;;;;;5006900;28;20404;-66
2021/01/11 11:02:49;;;;;;;35.10;13.50;;;-2.20;86.50;;;;;;5004397;28;20204;-66
2021/01/11 11:05:15;;;;;;;32.70;14.20;;;-2.10;85.90;;;;;;5004610;28;20465;-66
2021/01/11 11:07:40;;;;;;;38.43;13.90;;;-2.00;86.00;;;;;;5003981;28;20752;-66
2021/01/11 11:10:07;;;;;;;27.67;14.60;;;-1.90;85.40;;;;;;5005034;28;20202;-57
2021/01/11 11:12:33;;;;;;;30.77;14.10;;;-1.80;83.30;;;;;;5006613;28;20192;-67
2021/01/11 11:15:00;;;;;;;32.80;13.10;;;-1.70;83.40;;;;;;5001215;28;21012;-65
2021/01/11 11:17:35;;;;;;;35.00;14.70;;;-1.60;82.10;;;;;;5004540;28;20522;-66
2021/01/11 11:20:02;;;;;;;34.07;14.00;;;-1.50;79.70;;;;;;5003530;28;20986;-66
2021/01/11 11:22:27;;;;;;;32.67;14.03;;;-1.60;77.80;;;;;;4997483;28;20436;-66
2021/01/11 11:24:56;;;;;;;27.23;13.87;;;-1.60;77.70;;;;;;5003641;28;20472;-66
2021/01/11 11:27:21;;;;;;;33.20;13.17;;;-1.60;77.70;;;;;;5008884;28;20438;-66
2021/01/11 11:29:48;;;;;;;27.27;13.00;;;-1.60;77.20;;;;;;5005490;28;20957;-65
2021/01/11 11:32:16;;;;;;;32.40;14.73;;;-1.70;77.20;;;;;;5006718;28;20415;-67
2021/01/11 11:34:42;;;;;;;29.33;13.10;;;-1.60;77.80;;;;;;5005991;28;20428;-66
2021/01/11 11:37:08;;;;;;;28.30;13.53;;;-1.60;77.20;;;;;;5006398;28;20520;-67
2021/01/11 11:39:34;;;;;;;32.43;13.50;;;-1.50;79.20;;;;;;4995479;28;20617;-66
2021/01/11 11:42:00;;;;;;;27.47;13.37;;;-1.10;77.70;;;;;;5002690;28;20209;-66
2021/01/11 11:44:26;;;;;;;29.63;14.47;;;-0.80;75.30;;;;;;5006332;28;20877;-66
2021/01/11 11:46:53;;;;;;;36.20;14.67;;;-0.50;71.60;;;;;;5000895;28;20432;-65
2021/01/11 11:49:20;;;;;;;31.47;14.47;;;-0.20;68.90;;;;;;5003487;28;20548;-66
2021/01/11 11:51:46;;;;;;;29.63;13.17;;;-0.20;66.20;;;;;;5008588;28;20448;-66
2021/01/11 11:54:12;;;;;;;28.63;13.93;;;-0.10;62.90;;;;;;5003554;28;20446;-65
2021/01/11 11:56:42;;;;;;;33.27;15.80;;;-0.10;63.70;;;;;;5007427;28;20856;-67
2021/01/11 11:59:09;;;;;;;30.60;13.90;;;0.00;62.80;;;;;;5004837;28;20179;-66
2021/01/11 12:01:38;;;;;;;32.47;16.50;;;0.00;62.40;;;;;;5003044;28;20461;-66
2021/01/11 12:04:05;;;;;;;29.50;13.70;;;0.10;62.50;;;;;;4999070;28;20465;-67
2021/01/11 12:06:41;;;;;;;32.70;15.00;;;0.40;60.70;;;;;;5005461;28;20437;-66
2021/01/11 12:09:08;;;;;;;31.40;14.77;;;0.60;58.70;;;;;;5003136;28;20434;-66
2021/01/11 12:11:41;;;;;;;29.87;14.67;;;0.50;57.10;;;;;;5006478;28;20544;-66
2021/01/11 12:14:07;;;;;;;35.67;16.03;;;0.30;58.10;;;;;;5003827;28;20441;-67
2021/01/11 12:16:33;;;;;;;27.83;13.20;;;0.00;58.80;;;;;;5004902;28;20492;-64
2021/01/11 12:18:59;;;;;;;30.90;15.23;;;-0.20;59.80;;;;;;5006568;28;20564;-65
2021/01/11 12:21:33;;;;;;;29.97;13.90;;;-0.40;62.40;;;;;;5006648;28;20201;-64
2021/01/11 12:24:03;;;;;;;28.03;14.63;;;-0.60;67.50;;;;;;4999552;28;20466;-64
2021/01/11 12:26:58;;;;;;;33.40;14.67;;;-0.80;67.50;;;;;;5005492;28;20444;-66
2021/01/11 12:29:24;;;;;;;39.10;14.63;;;-0.90;70.00;;;;;;4991926;28;20444;-65
2021/01/11 12:31:51;;;;;;;36.87;14.30;;;-0.90;70.90;;;;;;5000884;28;20446;-65
2021/01/11 12:34:17;;;;;;;32.33;15.53;;;-1.10;68.30;;;;;;5003132;28;20213;-65
2021/01/11 12:36:43;;;;;;;36.03;16.40;;;-1.20;70.70;;;;;;5006391;28;20969;-63